TimeEST,TemperatureF,Dew PointF,Humidity,Sea Level PressureIn,VisibilityMPH,Wind Direction,Wind SpeedMPH,Gust SpeedMPH,PrecipitationIn,Events,Conditions,WindDirDegrees,DateUTC
12:53 AM,42.1,37.9,85,30.27,10.0,WNW,3.5,-,N/A,,Clear,290,2013-02-02 05:53:00
1:53 AM,42.1,37.9,85,30.26,10.0,West,3.5,-,N/A,,Clear,280,2013-02-02 06:53:00
2:53 AM,44.1,37.9,79,30.25,10.0,NW,5.8,-,N/A,,Clear,310,2013-02-02 07:53:00
3:53 AM,46.4,37.4,71,30.25,10.0,NW,4.6,-,N/A,,Clear,320,2013-02-02 08:53:00
4:53 AM,45.0,37.9,76,30.25,10.0,NW,3.5,-,N/A,,Clear,310,2013-02-02 09:53:00
5:53 AM,46.0,41.0,83,30.25,10.0,NW,3.5,-,N/A,,Clear,310,2013-02-02 10:53:00
6:53 AM,48.0,43.0,83,30.27,10.0,NW,5.8,-,N/A,,Clear,310,2013-02-02 11:53:00
7:53 AM,52.0,45.0,77,30.28,10.0,NW,4.6,-,N/A,,Clear,320,2013-02-02 12:53:00
8:53 AM,60.1,48.0,64,30.29,10.0,NNW,6.9,-,N/A,,Clear,340,2013-02-02 13:53:00
9:53 AM,66.9,51.1,57,30.29,10.0,NNW,8.1,-,N/A,,Clear,340,2013-02-02 14:53:00
10:53 AM,70.0,51.1,51,30.27,10.0,NNE,8.1,-,N/A,,Clear,20,2013-02-02 15:53:00
11:53 AM,71.1,51.1,49,30.24,10.0,NNE,8.1,-,N/A,,Clear,20,2013-02-02 16:53:00
12:53 PM,70.0,51.1,51,30.22,10.0,NNE,9.2,-,N/A,,Clear,20,2013-02-02 17:53:00
1:53 PM,72.0,51.1,48,30.19,10.0,NNE,6.9,-,N/A,,Scattered Clouds,30,2013-02-02 18:53:00
2:53 PM,71.1,48.0,44,30.17,10.0,East,4.6,-,N/A,,Scattered Clouds,90,2013-02-02 19:53:00
3:53 PM,71.1,46.9,42,30.17,10.0,ENE,3.5,-,N/A,,Partly Cloudy,70,2013-02-02 20:53:00
4:53 PM,69.1,46.9,45,30.16,10.0,ENE,3.5,-,N/A,,Clear,60,2013-02-02 21:53:00
5:53 PM,66.0,46.9,50,30.16,10.0,Calm,Calm,-,N/A,,Clear,0,2013-02-02 22:53:00
6:53 PM,55.0,48.0,77,30.16,10.0,Calm,Calm,-,N/A,,Clear,0,2013-02-02 23:53:00
7:53 PM,52.0,46.9,83,30.17,10.0,Calm,Calm,-,N/A,,Clear,0,2013-02-03 00:53:00
8:53 PM,51.1,46.9,86,30.18,10.0,Calm,Calm,-,N/A,,Clear,0,2013-02-03 01:53:00
9:53 PM,50.0,46.9,89,30.17,10.0,Calm,Calm,-,N/A,,Clear,0,2013-02-03 02:53:00
10:53 PM,48.9,46.0,90,30.16,10.0,Calm,Calm,-,N/A,,Clear,0,2013-02-03 03:53:00
11:53 PM,48.9,46.0,90,30.14,10.0,Calm,Calm,-,N/A,,Clear,0,2013-02-03 04:53:00